Accueil
METAR-TAF:

METAR-TAF

Aéroports :

Buochs, Suisse

latitude: 46-58-28N, longitude: 8-23-49E, altitude: 449 m

Observation

Le bulletin a été fait il y a 32 minutes, à 05:20 UTC
Vent 1 kt de est
Température 4°C
Humidité 100%
Pression 1018 hPa
Visibilité: 4900 m
Ciel couvert à une hauteur de 5000 ft
brume

METAR: LSZC 080520Z AUTO 10001KT 4900 BR OVC050 04/04 Q1018

Heure: 06:52 (05:52 UTC)

Prévision

Le bulletin a été fait il y a 27 minutes, à 05:25 UTC
Prévision valable du 08 à 06 UTC au 08 à 15 UTC
Vent 2 kt de direction variable
Visibilité: 8000 m
Nuages fragmentés à une hauteur de 2300 ft
Temporairement
du 08 à 06 UTC au 08 à 10 UTC
Visibilité: 4000 m
pluie

TAF: LSZC 080525Z 0806/0815 VRB02KT 8000 BKN023 TEMPO 0806/0810 4000 RA

Observations et prévisions météorologiques de plus de 4000 aéroports (messages METAR et TAF).

Les stations disponibles sont représentées par des disques jaunes et rouges sur la carte.

Passer la souris dessus pour voir le nom de la station.

Cliquer dessus pour voir les observations et prévisions météorologiques.

Pour changer de carte: cliquez sur les boutons verts avec une croix noire pour zoomer, sur le bouton vert avec un tiret pour effectuer un zoom arrière, ou sur les flèches vertes pour les cartes adjacentes.


METAR-TAF: